createdAt,value
2023-01-31T00:00:12.930Z,100081.81
2023-01-31T00:02:42.911Z,100088.03
2023-01-31T00:05:11.670Z,100095.66
2023-01-31T00:07:40.148Z,100094.13
2023-01-31T00:10:09.129Z,100086.72
2023-01-31T00:12:37.590Z,100099.44
2023-01-31T00:15:06.522Z,100090.88
2023-01-31T00:17:34.689Z,100089.13
2023-01-31T00:20:04.496Z,100086.34
2023-01-31T00:22:33.001Z,100076.22
2023-01-31T00:25:01.217Z,100073.66
2023-01-31T00:27:29.623Z,100077.31
2023-01-31T00:29:57.881Z,100090.72
2023-01-31T00:32:29.118Z,100082.56
2023-01-31T00:34:57.282Z,100075.81
2023-01-31T00:37:28.255Z,100079.75
2023-01-31T00:39:56.618Z,100074.00
2023-01-31T00:42:24.867Z,100073.53
2023-01-31T00:44:53.401Z,100070.06
2023-01-31T00:47:21.563Z,100086.78
2023-01-31T00:49:50.468Z,100087.50
2023-01-31T00:52:18.882Z,100087.03
2023-01-31T00:54:48.865Z,100074.03
2023-01-31T00:57:17.355Z,100090.50
2023-01-31T00:59:45.580Z,100090.66
2023-01-31T01:02:13.926Z,100082.28
2023-01-31T01:04:42.426Z,100095.75
2023-01-31T01:07:11.003Z,100085.25
2023-01-31T01:09:39.434Z,100080.31
2023-01-31T01:12:10.743Z,100075.28
2023-01-31T01:14:39.237Z,100063.81
2023-01-31T01:17:07.945Z,100067.66
2023-01-31T01:19:36.074Z,100063.72
2023-01-31T01:22:04.952Z,100066.63
2023-01-31T01:24:34.057Z,100066.22
2023-01-31T01:27:05.301Z,100053.03
2023-01-31T01:29:35.353Z,100055.19
2023-01-31T01:32:04.368Z,100059.47
2023-01-31T01:34:32.905Z,100065.22
2023-01-31T01:37:01.600Z,100067.09
2023-01-31T01:39:31.454Z,100077.31
2023-01-31T01:42:00.821Z,100080.03
2023-01-31T01:44:52.293Z,100087.66
2023-01-31T01:47:29.254Z,100092.34
2023-01-31T01:50:02.232Z,100021.22
2023-01-31T01:52:34.659Z,100082.09
2023-01-31T01:55:08.330Z,100096.09
2023-01-31T01:57:40.777Z,100100.81
2023-01-31T02:00:16.830Z,100106.97
2023-01-31T02:02:51.861Z,100104.31
2023-01-31T02:05:25.945Z,100099.97
2023-01-31T02:07:54.795Z,100076.44
2023-01-31T02:10:30.085Z,100098.06
2023-01-31T02:12:58.823Z,100106.22
2023-01-31T02:15:29.517Z,100104.53
2023-01-31T02:17:58.108Z,100112.97
2023-01-31T02:20:47.683Z,100114.59
2023-01-31T02:23:47.951Z,100116.31
2023-01-31T02:26:55.043Z,100121.28
2023-01-31T02:29:38.998Z,100125.50
2023-01-31T02:32:49.052Z,100127.66
2023-01-31T02:35:30.264Z,100111.63
2023-01-31T02:38:10.207Z,100119.25
2023-01-31T02:40:46.697Z,100136.00
2023-01-31T02:43:22.975Z,100138.63
2023-01-31T02:45:58.230Z,100138.41
2023-01-31T02:48:36.633Z,100140.19
2023-01-31T02:51:09.919Z,100133.97
2023-01-31T02:53:43.712Z,100140.69
2023-01-31T02:56:20.629Z,100133.34
2023-01-31T02:58:59.813Z,100137.38
2023-01-31T03:01:33.073Z,100139.09
2023-01-31T03:04:05.863Z,100137.03
2023-01-31T03:07:02.003Z,100144.63
2023-01-31T03:09:39.244Z,100140.94
2023-01-31T03:12:23.130Z,100146.13
2023-01-31T03:15:03.885Z,100145.88
2023-01-31T03:17:40.506Z,100144.84
2023-01-31T03:20:13.713Z,100132.97
2023-01-31T03:22:47.964Z,100142.91
2023-01-31T03:25:21.985Z,100122.06
2023-01-31T03:27:57.462Z,100147.44
2023-01-31T03:30:32.775Z,100150.63
2023-01-31T03:33:07.709Z,100149.13
2023-01-31T03:35:39.051Z,100142.34
2023-01-31T03:38:17.674Z,100151.72
2023-01-31T03:40:55.491Z,100148.34
2023-01-31T03:43:29.949Z,100111.34
2023-01-31T03:46:03.862Z,100162.09
2023-01-31T03:48:37.131Z,100156.84
2023-01-31T03:51:10.159Z,100162.63
2023-01-31T03:53:43.888Z,100180.41
2023-01-31T03:56:18.821Z,100175.69
2023-01-31T03:58:51.015Z,100174.63
2023-01-31T04:01:21.360Z,100174.88
2023-01-31T04:03:55.920Z,100177.78
2023-01-31T04:06:24.372Z,100176.63
2023-01-31T04:08:54.233Z,100179.63
2023-01-31T04:11:26.623Z,100188.38
2023-01-31T04:13:55.772Z,100189.72
2023-01-31T04:16:24.747Z,100187.38
2023-01-31T04:19:00.784Z,100180.53
2023-01-31T04:21:29.184Z,100195.31
2023-01-31T04:24:17.081Z,100191.56
2023-01-31T04:26:45.585Z,100178.38
2023-01-31T04:38:26.296Z,100194.00
2023-01-31T05:20:11.189Z,100206.03
2023-01-31T05:59:46.737Z,100258.63
2023-01-31T06:02:28.708Z,100249.50
2023-01-31T06:04:57.953Z,100266.28
2023-01-31T06:10:11.945Z,100242.81
2023-01-31T06:56:49.713Z,100287.88
2023-01-31T06:59:18.606Z,100298.75
2023-01-31T07:01:49.070Z,100306.16
2023-01-31T07:04:17.659Z,100304.06
2023-01-31T07:06:59.822Z,100296.31
2023-01-31T07:09:31.075Z,100303.38
2023-01-31T07:12:01.570Z,100297.25
2023-01-31T07:14:30.180Z,100308.66
2023-01-31T07:19:56.872Z,100324.16
2023-01-31T07:22:25.042Z,100336.88
2023-01-31T07:24:55.384Z,100342.91
2023-01-31T07:27:24.657Z,100347.19
2023-01-31T07:29:53.156Z,100324.91
2023-01-31T07:32:32.359Z,100333.31
2023-01-31T07:38:01.882Z,100335.22
2023-01-31T07:40:32.161Z,100337.41
2023-01-31T07:43:02.492Z,100340.47
2023-01-31T07:45:31.073Z,100339.41
2023-01-31T07:48:00.691Z,100342.75
2023-01-31T07:50:30.979Z,100344.75
2023-01-31T07:53:00.148Z,100342.47
2023-01-31T07:55:28.640Z,100352.88
2023-01-31T07:57:58.882Z,100342.34
2023-01-31T08:00:44.801Z,100344.31
2023-01-31T08:03:34.918Z,100357.88
2023-01-31T08:06:05.453Z,100357.56
2023-01-31T08:08:34.208Z,100347.28
2023-01-31T08:11:02.857Z,100362.88
2023-01-31T08:13:34.085Z,100342.72
2023-01-31T08:16:03.066Z,100363.41
2023-01-31T08:18:31.891Z,100342.19
2023-01-31T08:21:01.594Z,100357.38
2023-01-31T08:23:31.975Z,100355.34
2023-01-31T08:26:05.030Z,100359.53
2023-01-31T08:28:35.231Z,100339.22
2023-01-31T08:31:09.129Z,100338.03
2023-01-31T08:33:38.442Z,100358.28
2023-01-31T08:36:11.246Z,100357.09
2023-01-31T08:38:40.383Z,100365.38
2023-01-31T08:41:08.918Z,100365.97
2023-01-31T08:43:54.089Z,100311.28
2023-01-31T08:46:24.120Z,100371.91
2023-01-31T08:48:52.465Z,100378.72
2023-01-31T08:51:21.294Z,100373.97
2023-01-31T08:53:50.049Z,100374.38
2023-01-31T08:56:21.829Z,100372.28
2023-01-31T08:58:52.087Z,100364.84
2023-01-31T09:01:22.404Z,100373.00
2023-01-31T09:03:57.084Z,100365.44
2023-01-31T09:06:27.821Z,100382.22
2023-01-31T09:08:58.023Z,100372.22
2023-01-31T09:11:30.654Z,100379.09
2023-01-31T09:14:01.249Z,100392.00
2023-01-31T09:16:30.074Z,100380.22
2023-01-31T09:18:58.542Z,100384.16
2023-01-31T09:21:26.789Z,100400.69
2023-01-31T09:24:02.531Z,100413.19
2023-01-31T09:26:31.250Z,100409.00
2023-01-31T09:29:01.917Z,100402.84
2023-01-31T09:31:30.745Z,100389.81
2023-01-31T09:33:59.649Z,100396.16
2023-01-31T09:36:28.552Z,100398.38
2023-01-31T09:38:58.009Z,100393.72
2023-01-31T09:41:32.276Z,100395.84
2023-01-31T09:44:06.962Z,100392.94
2023-01-31T09:46:39.038Z,100402.59
2023-01-31T09:49:16.731Z,100402.97
2023-01-31T09:51:45.234Z,100405.81
2023-01-31T09:54:22.601Z,100402.88
2023-01-31T09:57:02.545Z,100408.09
2023-01-31T09:59:43.976Z,100402.22
2023-01-31T10:02:30.643Z,100399.22
2023-01-31T10:05:08.551Z,100388.28
2023-01-31T10:07:42.828Z,100392.09
2023-01-31T10:10:23.503Z,100385.31
2023-01-31T10:12:56.059Z,100373.31
2023-01-31T10:15:34.007Z,100373.31
2023-01-31T10:18:05.639Z,100374.72
2023-01-31T10:20:40.101Z,100360.22
2023-01-31T10:23:16.201Z,100352.50
2023-01-31T10:25:54.369Z,100354.88
2023-01-31T10:28:29.101Z,100338.97
2023-01-31T10:31:03.984Z,100357.81
2023-01-31T10:33:40.868Z,100354.66
2023-01-31T10:36:16.125Z,100364.31
2023-01-31T10:38:57.978Z,100357.41
2023-01-31T10:41:39.860Z,100354.72
2023-01-31T10:44:13.994Z,100361.16
2023-01-31T10:46:43.502Z,100357.19
2023-01-31T10:49:12.437Z,100362.06
2023-01-31T10:52:06.937Z,100355.72
2023-01-31T10:54:50.385Z,100360.25
2023-01-31T10:57:19.510Z,100359.59
2023-01-31T10:59:49.526Z,100357.78
2023-01-31T11:02:22.443Z,100351.56
2023-01-31T11:04:52.695Z,100354.75
2023-01-31T11:07:21.759Z,100344.78
2023-01-31T11:09:54.393Z,100354.38
2023-01-31T11:12:23.938Z,100348.78
2023-01-31T11:15:09.325Z,100354.75
2023-01-31T11:17:40.922Z,100328.50
2023-01-31T11:20:22.969Z,100347.38
2023-01-31T11:22:52.352Z,100334.72
2023-01-31T11:25:23.248Z,100308.19
2023-01-31T11:27:55.576Z,100346.63
2023-01-31T11:30:27.778Z,100344.72
2023-01-31T11:32:58.404Z,100343.84
2023-01-31T11:35:29.703Z,100328.78
2023-01-31T11:37:59.896Z,100323.63
2023-01-31T11:40:31.767Z,100342.09
2023-01-31T11:43:02.133Z,100315.59
2023-01-31T11:45:32.783Z,100338.19
2023-01-31T11:48:12.637Z,100352.97
2023-01-31T11:50:44.592Z,100349.84
2023-01-31T11:53:20.112Z,100348.06
2023-01-31T11:55:50.779Z,100344.56
2023-01-31T11:58:24.125Z,100325.94
2023-01-31T12:00:58.493Z,100343.94
2023-01-31T12:03:29.367Z,100347.38
2023-01-31T12:06:02.880Z,100352.00
2023-01-31T12:08:36.012Z,100305.47
2023-01-31T12:11:06.718Z,100347.22
2023-01-31T12:13:48.019Z,100313.97
2023-01-31T12:16:20.153Z,100340.19
2023-01-31T12:19:15.493Z,100357.50
2023-01-31T12:21:54.161Z,100354.72
2023-01-31T12:24:36.818Z,100366.34
2023-01-31T12:27:15.746Z,100366.28
2023-01-31T12:30:04.757Z,100361.22
2023-01-31T12:32:51.639Z,100347.63
2023-01-31T12:35:41.968Z,100367.47
2023-01-31T12:38:26.171Z,100376.88
2023-01-31T12:41:20.634Z,100372.81
2023-01-31T12:44:19.232Z,100365.50
2023-01-31T12:47:21.541Z,100372.94
2023-01-31T12:50:03.593Z,100365.50
2023-01-31T12:52:51.131Z,100373.72
2023-01-31T12:55:41.857Z,100381.75
2023-01-31T13:01:17.898Z,100386.59
2023-01-31T13:04:19.376Z,100367.91
2023-01-31T13:09:42.697Z,100384.03
2023-01-31T13:12:18.419Z,100391.53
2023-01-31T13:14:54.724Z,100397.25
2023-01-31T13:20:32.234Z,100385.72
2023-01-31T13:23:05.651Z,100375.44
2023-01-31T13:25:41.365Z,100392.06
2023-01-31T13:28:18.248Z,100385.25
2023-01-31T13:30:52.239Z,100399.28
2023-01-31T13:33:30.788Z,100382.88
2023-01-31T13:36:08.163Z,100409.47
2023-01-31T13:38:40.819Z,100415.28
2023-01-31T13:41:22.425Z,100410.06
2023-01-31T13:43:50.733Z,100418.63
2023-01-31T13:46:24.945Z,100407.25
2023-01-31T13:48:57.848Z,100409.13
2023-01-31T13:51:31.306Z,100402.72
2023-01-31T13:54:07.601Z,100397.84
2023-01-31T13:56:40.862Z,100396.13
2023-01-31T13:59:13.602Z,100401.09
2023-01-31T14:01:48.681Z,100402.53
2023-01-31T14:04:37.819Z,100409.97
2023-01-31T14:07:20.255Z,100398.09
2023-01-31T14:10:21.738Z,100412.38
2023-01-31T14:13:38.351Z,100411.69
2023-01-31T14:16:39.056Z,100426.94
2023-01-31T14:19:33.341Z,100423.59
2023-01-31T14:22:07.429Z,100429.47
2023-01-31T14:25:14.235Z,100432.09
2023-01-31T14:27:45.810Z,100440.34
2023-01-31T14:30:35.213Z,100448.81
2023-01-31T14:33:15.755Z,100451.44
2023-01-31T14:36:08.960Z,100452.75
2023-01-31T14:38:51.929Z,100448.75
2023-01-31T14:41:33.179Z,100446.88
2023-01-31T14:44:14.323Z,100436.44
2023-01-31T14:47:25.857Z,100466.63
2023-01-31T14:50:22.060Z,100462.22
2023-01-31T14:53:05.629Z,100461.00
2023-01-31T14:55:46.493Z,100461.66
2023-01-31T14:58:19.846Z,100461.44
2023-01-31T15:00:54.103Z,100453.59
2023-01-31T15:03:26.948Z,100444.66
2023-01-31T15:06:07.228Z,100464.19
2023-01-31T15:08:47.238Z,100477.41
2023-01-31T15:11:42.786Z,100476.66
2023-01-31T15:14:37.826Z,100475.81
2023-01-31T15:17:33.596Z,100475.13
2023-01-31T15:20:15.963Z,100478.97
2023-01-31T15:22:46.958Z,100477.06
2023-01-31T15:25:30.050Z,100487.56
2023-01-31T15:27:59.001Z,100482.34
2023-01-31T15:30:29.762Z,100478.59
2023-01-31T15:33:03.247Z,100485.75
2023-01-31T15:35:34.238Z,100471.38
2023-01-31T15:38:11.545Z,100484.44
2023-01-31T15:40:39.718Z,100486.97
2023-01-31T15:43:17.662Z,100481.47
2023-01-31T15:45:47.939Z,100490.22
2023-01-31T15:48:17.847Z,100496.78
2023-01-31T15:50:54.021Z,100500.34
2023-01-31T15:53:26.503Z,100480.53
2023-01-31T15:55:57.115Z,100495.69
2023-01-31T15:58:27.591Z,100505.78
2023-01-31T16:00:57.641Z,100511.00
2023-01-31T16:03:28.940Z,100519.38
2023-01-31T16:05:58.999Z,100527.88
2023-01-31T16:08:31.421Z,100525.28
2023-01-31T16:11:00.189Z,100528.03
2023-01-31T16:13:29.461Z,100525.69
2023-01-31T16:15:58.386Z,100529.00
2023-01-31T16:18:26.844Z,100535.72
2023-01-31T16:20:57.271Z,100532.97
2023-01-31T16:23:40.773Z,100543.84
2023-01-31T16:26:14.120Z,100543.22
2023-01-31T16:28:45.225Z,100532.41
2023-01-31T16:31:15.960Z,100539.28
2023-01-31T16:33:50.075Z,100545.75
2023-01-31T16:36:24.741Z,100543.03
2023-01-31T16:39:00.379Z,100539.47
2023-01-31T16:41:48.208Z,100528.81
2023-01-31T16:44:19.712Z,100542.88
2023-01-31T16:46:50.046Z,100540.94
2023-01-31T16:49:26.983Z,100525.44
2023-01-31T16:51:57.438Z,100541.28
2023-01-31T16:54:31.034Z,100539.56
2023-01-31T16:57:21.001Z,100545.31
2023-01-31T16:59:51.085Z,100537.53
2023-01-31T17:02:30.704Z,100549.56
2023-01-31T17:05:01.027Z,100547.44
2023-01-31T17:07:31.756Z,100550.44
2023-01-31T17:10:04.368Z,100550.22
2023-01-31T17:12:34.936Z,100547.72
2023-01-31T17:15:04.083Z,100545.88
2023-01-31T17:17:37.538Z,100533.00
2023-01-31T17:20:06.520Z,100544.38
2023-01-31T17:22:34.768Z,100539.34
2023-01-31T17:25:04.369Z,100547.06
2023-01-31T17:27:34.859Z,100552.00
2023-01-31T17:30:03.011Z,100541.75
2023-01-31T17:32:32.370Z,100538.41
2023-01-31T17:35:01.493Z,100544.47
2023-01-31T17:37:31.837Z,100549.16
2023-01-31T17:40:01.484Z,100558.47
2023-01-31T17:42:30.992Z,100534.94
2023-01-31T17:44:59.221Z,100556.72
2023-01-31T17:47:28.055Z,100555.78
2023-01-31T17:49:57.449Z,100555.56
2023-01-31T17:52:25.752Z,100560.69
2023-01-31T17:54:54.355Z,100566.38
2023-01-31T17:57:22.894Z,100560.75
2023-01-31T17:59:53.247Z,100558.72
2023-01-31T18:02:21.499Z,100558.28
2023-01-31T18:04:49.593Z,100565.38
2023-01-31T18:07:18.371Z,100569.25
2023-01-31T18:09:47.157Z,100554.28
2023-01-31T18:12:15.695Z,100573.81
2023-01-31T18:14:45.486Z,100567.16
2023-01-31T18:17:15.116Z,100568.81
2023-01-31T18:19:43.224Z,100579.41
2023-01-31T18:22:11.275Z,100565.47
2023-01-31T18:24:40.942Z,100569.31
2023-01-31T18:27:09.329Z,100565.91
2023-01-31T18:29:37.396Z,100559.88
2023-01-31T18:32:08.100Z,100571.06
2023-01-31T18:34:38.592Z,100571.63
2023-01-31T18:37:13.364Z,100575.44
2023-01-31T18:39:41.535Z,100579.47
2023-01-31T18:42:10.217Z,100577.59
2023-01-31T18:44:38.297Z,100578.53
2023-01-31T18:47:06.870Z,100585.22
2023-01-31T18:49:35.047Z,100585.16
2023-01-31T18:52:06.618Z,100582.19
2023-01-31T18:54:35.293Z,100581.38
2023-01-31T18:57:03.324Z,100582.81
2023-01-31T18:59:31.666Z,100590.22
2023-01-31T19:02:00.280Z,100587.50
2023-01-31T19:04:28.406Z,100586.81
2023-01-31T19:06:57.520Z,100583.75
2023-01-31T19:09:27.727Z,100593.09
2023-01-31T19:11:55.770Z,100596.00
2023-01-31T19:14:25.135Z,100593.44
2023-01-31T19:16:53.632Z,100597.69
2023-01-31T19:19:22.131Z,100607.88
2023-01-31T19:21:50.751Z,100609.13
2023-01-31T19:24:18.841Z,100611.84
2023-01-31T19:26:48.844Z,100609.88
2023-01-31T19:29:17.689Z,100613.22
2023-01-31T19:31:46.138Z,100600.84
2023-01-31T19:34:14.269Z,100603.19
2023-01-31T19:36:44.812Z,100601.03
2023-01-31T19:39:14.075Z,100617.13
2023-01-31T19:41:43.166Z,100616.75
2023-01-31T19:44:13.103Z,100620.38
2023-01-31T19:46:42.655Z,100615.97
2023-01-31T19:49:11.266Z,100624.59
2023-01-31T19:51:39.425Z,100625.00
2023-01-31T19:54:08.114Z,100629.09
2023-01-31T19:56:36.460Z,100627.41
2023-01-31T19:59:06.539Z,100628.88
2023-01-31T20:01:36.395Z,100624.75
2023-01-31T20:04:05.026Z,100632.34
2023-01-31T20:06:35.720Z,100624.88
2023-01-31T20:09:06.226Z,100634.44
2023-01-31T20:11:37.013Z,100629.00
2023-01-31T20:14:06.700Z,100626.13
2023-01-31T20:16:36.295Z,100625.94
2023-01-31T20:19:06.757Z,100622.41
2023-01-31T20:21:35.035Z,100619.69
2023-01-31T20:24:03.202Z,100631.63
2023-01-31T20:26:31.370Z,100625.41
2023-01-31T20:29:00.106Z,100620.03
2023-01-31T20:31:28.460Z,100626.47
2023-01-31T20:33:57.962Z,100618.59
2023-01-31T20:36:26.410Z,100620.94
2023-01-31T20:38:54.695Z,100620.09
2023-01-31T20:41:23.293Z,100616.53
2023-01-31T20:43:51.715Z,100613.19
2023-01-31T20:46:20.427Z,100624.97
2023-01-31T20:48:48.577Z,100629.94
2023-01-31T20:51:18.400Z,100630.72
2023-01-31T20:53:46.794Z,100633.28
2023-01-31T20:56:15.388Z,100642.47
2023-01-31T20:58:44.909Z,100635.84
2023-01-31T21:01:14.095Z,100639.88
2023-01-31T21:03:42.211Z,100638.13
2023-01-31T21:06:10.758Z,100645.75
2023-01-31T21:08:41.575Z,100642.44
2023-01-31T21:11:12.111Z,100646.69
2023-01-31T21:13:41.312Z,100651.81
2023-01-31T21:16:11.044Z,100646.75
2023-01-31T21:18:41.036Z,100634.34
2023-01-31T21:21:11.470Z,100651.25
2023-01-31T21:23:42.281Z,100652.06
2023-01-31T21:26:12.543Z,100655.44
2023-01-31T21:28:41.415Z,100644.69
2023-01-31T21:31:12.874Z,100641.91
2023-01-31T21:33:41.432Z,100643.56
2023-01-31T21:36:11.504Z,100643.63
2023-01-31T21:38:41.903Z,100633.53
2023-01-31T21:41:28.547Z,100645.19
2023-01-31T21:43:57.311Z,100647.84
2023-01-31T21:46:26.482Z,100640.66
2023-01-31T21:48:55.092Z,100642.16
2023-01-31T21:51:26.357Z,100651.56
2023-01-31T21:53:56.404Z,100648.91
2023-01-31T21:56:27.215Z,100655.50
2023-01-31T21:58:56.413Z,100659.16
2023-01-31T22:01:26.810Z,100663.44
2023-01-31T22:03:56.403Z,100662.53
2023-01-31T22:06:27.511Z,100664.31
2023-01-31T22:09:00.019Z,100662.22
2023-01-31T22:11:33.133Z,100667.34
2023-01-31T22:14:03.060Z,100670.47
2023-01-31T22:16:31.789Z,100664.47
2023-01-31T22:19:00.845Z,100661.22
2023-01-31T22:21:31.081Z,100662.72
2023-01-31T22:24:03.477Z,100668.53
2023-01-31T22:26:33.433Z,100661.03
2023-01-31T22:29:04.259Z,100662.34
2023-01-31T22:31:33.261Z,100671.31
2023-01-31T22:34:01.848Z,100681.06
2023-01-31T22:36:30.263Z,100672.50
2023-01-31T22:38:58.575Z,100684.84
2023-01-31T22:41:28.381Z,100680.56
2023-01-31T22:43:56.583Z,100679.84
2023-01-31T22:46:26.905Z,100681.34
2023-01-31T22:48:56.112Z,100679.34
2023-01-31T22:51:25.808Z,100675.72
2023-01-31T22:53:54.992Z,100686.16
2023-01-31T22:56:24.653Z,100681.69
2023-01-31T22:58:58.249Z,100683.03
2023-01-31T23:01:28.231Z,100684.72
2023-01-31T23:03:58.499Z,100687.75
2023-01-31T23:06:27.946Z,100682.28
2023-01-31T23:08:56.468Z,100676.34
2023-01-31T23:11:25.376Z,100675.22
2023-01-31T23:13:54.254Z,100675.25
2023-01-31T23:16:47.108Z,100686.25
2023-01-31T23:19:16.697Z,100685.38
2023-01-31T23:21:45.187Z,100685.28
2023-01-31T23:24:14.847Z,100688.63
2023-01-31T23:26:43.263Z,100684.94
2023-01-31T23:29:11.909Z,100674.41
2023-01-31T23:31:41.832Z,100682.91
2023-01-31T23:34:10.142Z,100673.31
2023-01-31T23:36:38.857Z,100663.94
2023-01-31T23:39:07.536Z,100643.13
2023-01-31T23:41:35.905Z,100641.66
2023-01-31T23:44:04.292Z,100651.97
2023-01-31T23:46:33.042Z,100659.44
2023-01-31T23:49:03.086Z,100658.66
2023-01-31T23:51:34.000Z,100672.25
2023-01-31T23:54:02.297Z,100650.00
2023-01-31T23:56:30.448Z,100664.75
2023-01-31T23:58:58.651Z,100672.53
